METAR Data
IDs: Format: Raw Decoded Include TAF

Data at: 1748 UTC 21 Sep 2018

KBMT 211735Z AUTO 15008KT 10SM SCT026 BKN034 32/25 A2997 RMK AO2 LTG DSNT NE AND W T03220245
KBMT 211715Z AUTO 12006KT 10SM SCT026 SCT034 BKN049 32/25 A2999 RMK AO2 LTG DSNT NE T03240249
KBMT 211655Z AUTO 13007KT 10SM SCT026 SCT034 BKN055 32/25 A2999 RMK AO2 LTG DSNT NE AND E T03150247
KBMT 211635Z AUTO 13009KT 10SM TS SCT026 SCT031 SCT047 33/25 A3000 RMK AO2 LTG DSNT NE AND E T03260246
KBMT 211615Z AUTO 14006KT 10SM VCTS SCT024 32/25 A3000 RMK AO2 LTG DSNT NE AND E T03210250
KBMT 211555Z AUTO 14008KT 120V180 10SM SCT018 32/26 A3000 RMK AO2 LTG DSNT NE AND E T03150257
KBMT 211535Z AUTO 15004KT 10SM -VCTSDZ SCT018 SCT024 SCT035 30/26 A3000 RMK AO2 LTG DSNT NE AND E T02980261
KBMT 211515Z AUTO 11004KT 10SM -RA SCT035 SCT043 29/26 A3000 RMK AO2 LTG DSNT E T02910260
KBMT 211455Z AUTO 12004KT 10SM -RA CLR 29/26 A3000 RMK AO2 LTG DSNT E T02880258
KBMT 211435Z AUTO 12004KT 10SM CLR 28/25 A3000 RMK AO2 LTG DSNT NE T02840253
KBMT 211415Z AUTO 00000KT 10SM VCTS CLR 28/25 A3000 RMK AO2 T02810251
KBMT 211355Z AUTO 13004KT 10SM CLR 29/26 A3000 RMK AO2 LTG DSNT E T02860255
KBMT 211335Z AUTO 15004KT 10SM CLR 28/25 A3000 RMK AO2 T02830253
KBMT 211315Z AUTO 12004KT 10SM CLR 28/25 A3000 RMK AO2 LTG DSNT S T02800251
KBMT 211255Z AUTO 00000KT 10SM SCT022 SCT027 28/25 A3000 RMK AO2 T02750250
KBMT 211235Z AUTO 00000KT 10SM -DZ CLR 27/25 A2999 RMK AO2 T02660250
KBMT 211215Z AUTO 00000KT 10SM CLR 27/25 A2999 RMK AO2 LTG DSNT E T02700247
KBMT 211155Z AUTO 00000KT 10SM CLR 27/25 A2998 RMK AO2 LTG DSNT E T02690247 10272 20263
KBMT 211135Z AUTO 00000KT 10SM SCT075 SCT120 27/25 A2998 RMK AO2 T02700246
KBMT 211115Z AUTO 00000KT 10SM SCT050 SCT070 SCT090 27/25 A2997 RMK AO2 T02700246
KBMT 211055Z AUTO 12004KT 10SM SCT070 27/25 A2997 RMK AO2 T02700247
KBMT 211035Z AUTO 12004KT 10SM CLR 27/25 A2996 RMK AO2 T02710245
KBMT 211015Z AUTO 13004KT 10SM CLR 27/25 A2996 RMK AO2 T02700245
KBMT 210955Z AUTO 12004KT 10SM SCT021 27/25 A2996 RMK AO2 T02680246
KBMT 210935Z AUTO 11004KT 10SM SCT020 SCT033 SCT038 27/25 A2996 RMK AO2 T02680248
KBMT 210915Z AUTO 12003KT 10SM SCT020 BKN033 27/25 A2996 RMK AO2 T02660247
KBMT 210855Z AUTO 00000KT 10SM CLR 27/25 A2996 RMK AO2 T02650245
KBMT 210835Z AUTO 12003KT 10SM CLR 26/25 A2995 RMK AO2 T02630245
KBMT 210815Z AUTO 00000KT 10SM CLR 27/25 A2996 RMK AO2 T02660245
KBMT 210755Z AUTO 00000KT 10SM CLR 27/25 A2996 RMK AO2 T02660245
KBMT 210735Z AUTO 00000KT 10SM CLR 27/25 A2996 RMK AO2 T02650245
KBMT 210715Z AUTO 12004KT 10SM CLR 27/25 A2997 RMK AO2 T02660245
KBMT 210655Z AUTO 13003KT 10SM CLR 27/25 A2997 RMK AO2 T02660245
KBMT 210635Z AUTO 12003KT 10SM CLR 27/25 A2997 RMK AO2 T02650245
KBMT 210615Z AUTO 12003KT 10SM CLR 27/24 A2997 RMK AO2 T02650244
KBMT 210555Z AUTO 00000KT 10SM CLR 27/24 A2998 RMK AO2 T02650244 10295 20262 403370238
KBMT 210535Z AUTO 00000KT 10SM CLR 27/24 A2999 RMK AO2 T02660243
KBMT 210515Z AUTO 00000KT 10SM CLR 26/24 A2999 RMK AO2 T02640242
KBMT 210455Z AUTO 12004KT 10SM CLR 26/24 A2999 RMK AO2 T02630242
KBMT 210435Z AUTO 12004KT 10SM CLR 26/24 A2999 RMK AO2 T02640241
KBMT 210415Z AUTO 00000KT 10SM SCT022 27/24 A2999 RMK AO2 T02660242
KBMT 210355Z AUTO 13003KT 10SM CLR 26/24 A2999 RMK AO2 T02630241
KBMT 210335Z AUTO 00000KT 10SM CLR 27/24 A2999 RMK AO2 T02650242
KBMT 210315Z AUTO 11003KT 10SM CLR 27/24 A2999 RMK AO2 T02660242
KBMT 210250Z AUTO 11003KT 10SM SCT025 27/24 A2999 RMK AO2 T02670242
KBMT 210235Z AUTO 00000KT 10SM CLR 27/24 A2999 RMK AO2 T02700242
KBMT 210215Z AUTO 00000KT 10SM CLR 27/24 A2998 RMK AO2 T02710242
KBMT 210155Z AUTO 00000KT 10SM CLR 27/24 A2997 RMK AO2 T02720243
KBMT 210135Z AUTO 17003KT 10SM SCT022 28/24 A2996 RMK AO2 T02760242
KBMT 210115Z AUTO 14003KT 10SM SCT022 28/24 A2995 RMK AO2 T02800241
KBMT 210055Z AUTO 16003KT 10SM SCT022 28/24 A2994 RMK AO2 LTG DSNT N T02800240
KBMT 210035Z AUTO 15004KT 10SM CLR 28/24 A2993 RMK AO2 LTG DSNT N T02830237
KBMT 210015Z AUTO 15005KT 10SM VCTS CLR 29/24 A2994 RMK AO2 LTG DSNT N T02890237
KBMT 202355Z AUTO 17007KT 10SM CLR 30/24 A2994 RMK AO2 T02950238 10337 20295
KBMT 202335Z AUTO 17008KT 10SM CLR 30/24 A2994 RMK AO2 T03040235
KBMT 202315Z AUTO 15008KT 10SM CLR 31/23 A2993 RMK AO2 T03090232
KBMT 202255Z AUTO 17008KT 10SM CLR 31/23 A2993 RMK AO2 T03120226
KBMT 202235Z AUTO 17009G15KT 10SM SCT034 SCT041 32/23 A2993 RMK AO2 T03160225
KBMT 202215Z AUTO 18009KT 10SM SCT036 SCT041 SCT049 31/23 A2994 RMK AO2 T03100231
KBMT 202155Z AUTO 17008KT 10SM SCT039 SCT049 32/23 A2994 RMK AO2 T03180226
KBMT 202135Z AUTO 14008KT 10SM SCT039 SCT046 33/22 A2993 RMK AO2 T03280217
KBMT 202115Z AUTO 17007KT 10SM SCT039 SCT046 33/22 A2993 RMK AO2 LTG DSNT W T03290224
KBMT 202055Z AUTO 16007KT 10SM SCT040 33/22 A2993 RMK AO2 T03310223
KBMT 202035Z AUTO 12007G14KT 10SM SCT040 SCT048 SCT055 33/23 A2993 RMK AO2 LTG DSNT NE T03330225
KBMT 202015Z AUTO 16006KT 10SM CLR 33/23 A2994 RMK AO2 LTG DSNT W T03320225
KBMT 201955Z AUTO 17009KT 120V180 10SM SCT042 33/22 A2995 RMK AO2 LTG DSNT NE AND W T03320218
KBMT 201935Z AUTO 16008KT 10SM SCT042 SCT060 33/22 A2996 RMK AO2 LTG DSNT NW T03320221
KBMT 201915Z AUTO 15007KT 10SM SCT042 SCT060 33/22 A2997 RMK AO2 LTG DSNT E T03290223
KBMT 201855Z AUTO 18006KT 10SM SCT042 SCT049 SCT060 33/23 A2997 RMK AO2 T03320227
KBMT 201835Z AUTO 12005KT 10SM SCT044 SCT050 SCT070 33/22 A2997 RMK AO2 LTG DSNT NE T03330216
KBMT 201815Z AUTO 13008KT 10SM SCT040 SCT060 BKN070 33/22 A2998 RMK AO2 T03320223
KBMT 201755Z AUTO 18004KT 10SM SCT038 SCT045 SCT060 32/22 A3000 RMK AO2 T03190223 10330 20240
KBMT 201735Z AUTO 15005KT 10SM SCT036 SCT050 33/23 A3000 RMK AO2 T03270226
KBMT 201715Z AUTO 17004KT 10SM BKN036 BKN047 32/23 A3000 RMK AO2 LTG DSNT NE AND W T03190226
KBMT 201655Z AUTO 19006KT 10SM SCT036 33/23 A3001 RMK AO2 LTG DSNT NE AND W T03260227
KBMT 201635Z AUTO 18006KT 10SM SCT031 SCT050 32/23 A3001 RMK AO2 LTG DSNT W T03190231
KBMT 201615Z AUTO 17004KT 10SM SCT028 SCT035 SCT041 32/23 A3002 RMK AO2 T03180234
KBMT 201555Z AUTO 13006KT 10SM SCT022 SCT032 31/24 A3002 RMK AO2 T03110240
KBMT 201535Z AUTO 12005KT 10SM BKN022 BKN032 31/24 A3001 RMK AO2 T03080240
KBMT 201515Z AUTO 16003KT 10SM SCT022 31/24 A3001 RMK AO2 T03050241
KBMT 201455Z AUTO 17005KT 10SM SCT020 30/24 A3001 RMK AO2 T03000242
KBMT 201435Z AUTO 15004KT 10SM CLR 30/24 A3000 RMK AO2 T02960244
KBMT 201415Z AUTO 11004KT 10SM CLR 29/25 A3000 RMK AO2 T02910247
KBMT 201355Z AUTO 00000KT 10SM CLR 28/24 A2999 RMK AO2 T02800244
KBMT 201335Z AUTO 00000KT 10SM CLR 28/24 A2999 RMK AO2 T02750243
KBMT 201315Z AUTO 10003KT 7SM CLR 27/24 A2998 RMK AO2 T02660241
KBMT 201255Z AUTO 00000KT 7SM CLR 26/24 A2998 RMK AO2 T02560236
KBMT 201235Z AUTO 00000KT 7SM CLR 25/23 A2997 RMK AO2 T02470231
KBMT 201215Z AUTO 00000KT 7SM CLR 25/23 A2997 RMK AO2 T02450230
KBMT 201155Z AUTO 00000KT 7SM CLR 24/23 A2996 RMK AO2 T02400226 10257 20238
KBMT 201135Z AUTO 00000KT 7SM CLR 24/23 A2996 RMK AO2 T02400226
KBMT 201115Z AUTO 00000KT 10SM CLR 24/23 A2996 RMK AO2 T02400226
KBMT 201055Z AUTO 00000KT 7SM CLR 24/23 A2995 RMK AO2 T02400226
KBMT 201035Z AUTO 00000KT 7SM CLR 24/23 A2995 RMK AO2 T02400227
KBMT 201015Z AUTO 00000KT 7SM CLR 24/23 A2995 RMK AO2 T02400228
KBMT 200955Z AUTO 00000KT 7SM CLR 24/23 A2995 RMK AO2 T02380225
KBMT 200935Z AUTO 00000KT 7SM CLR 24/23 A2995 RMK AO2 T02400227
KBMT 200915Z AUTO 00000KT 5SM BR CLR 24/23 A2995 RMK AO2 T02410230
KBMT 200855Z AUTO 00000KT 5SM BR CLR 25/23 A2995 RMK AO2 T02450232
KBMT 200835Z AUTO 00000KT 5SM BR CLR 24/23 A2996 RMK AO2 T02430230
KBMT 200815Z AUTO 00000KT 7SM SCT022 25/24 A2996 RMK AO2 T02480235
KBMT 200755Z AUTO 00000KT 10SM SCT022 25/24 A2996 RMK AO2 T02530238
KBMT 200735Z AUTO 00000KT 10SM CLR 25/24 A2996 RMK AO2 T02530239
KBMT 200715Z AUTO 00000KT 10SM CLR 26/24 A2997 RMK AO2 T02550240
KBMT 200655Z AUTO 00000KT 7SM CLR 25/24 A2997 RMK AO2 T02540239
KBMT 200635Z AUTO 19004KT 7SM CLR 25/24 A2997 RMK AO2 T02530240
KBMT 200615Z AUTO 18003KT 10SM CLR 25/24 A2997 RMK AO2 T02540240
KBMT 200555Z AUTO 00000KT 10SM CLR 26/24 A2997 RMK AO2 T02550240 10303 20255 403450255